createdAt,value
2022-11-17T00:00:10.651Z,20.07
2022-11-17T00:02:38.874Z,20.70
2022-11-17T00:05:09.192Z,18.70
2022-11-17T00:07:37.609Z,19.90
2022-11-17T00:10:06.540Z,23.13
2022-11-17T00:12:52.527Z,20.40
2022-11-17T00:15:20.621Z,15.73
2022-11-17T00:17:49.142Z,17.07
2022-11-17T00:20:36.412Z,15.67
2022-11-17T00:23:07.640Z,14.37
2022-11-17T00:25:35.760Z,21.43
2022-11-17T00:28:04.089Z,16.10
2022-11-17T00:30:49.492Z,17.73
2022-11-17T00:33:35.424Z,15.87
2022-11-17T00:36:05.412Z,16.50
2022-11-17T00:38:33.585Z,19.67
2022-11-17T00:41:01.674Z,17.70
2022-11-17T00:43:29.770Z,18.03
2022-11-17T00:45:57.913Z,21.20
2022-11-17T00:48:26.200Z,18.60
2022-11-17T00:50:54.361Z,18.23
2022-11-17T00:53:23.850Z,13.47
2022-11-17T00:55:52.023Z,15.00
2022-11-17T00:58:20.172Z,14.30
2022-11-17T01:00:49.942Z,11.53
2022-11-17T01:03:18.103Z,11.33
2022-11-17T01:05:46.270Z,12.83
2022-11-17T01:08:14.406Z,14.67
2022-11-17T01:10:43.952Z,15.47
2022-11-17T01:13:12.321Z,14.63
2022-11-17T01:15:40.402Z,14.73
2022-11-17T01:18:08.564Z,13.67
2022-11-17T01:20:36.884Z,12.87
2022-11-17T01:23:04.971Z,18.10
2022-11-17T01:25:33.160Z,15.23
2022-11-17T01:28:02.994Z,14.47
2022-11-17T01:30:31.091Z,16.27
2022-11-17T01:32:59.630Z,16.10
2022-11-17T01:35:27.792Z,17.97
2022-11-17T01:37:55.910Z,17.47
2022-11-17T01:40:24.119Z,17.93
2022-11-17T01:42:52.231Z,17.60
2022-11-17T01:45:22.560Z,19.53
2022-11-17T01:47:52.194Z,23.17
2022-11-17T01:50:26.552Z,21.63
2022-11-17T01:52:57.352Z,21.47
2022-11-17T01:55:27.511Z,24.13
2022-11-17T01:57:59.316Z,22.77
2022-11-17T02:00:29.013Z,24.10
2022-11-17T02:02:57.846Z,26.20
2022-11-17T02:05:34.290Z,23.87
2022-11-17T02:08:04.885Z,26.70
2022-11-17T02:10:33.550Z,26.37
2022-11-17T02:13:02.276Z,24.07
2022-11-17T02:19:19.511Z,23.50
2022-11-17T02:22:09.994Z,25.17
2022-11-17T02:24:57.328Z,28.27
2022-11-17T02:27:49.407Z,22.77
2022-11-17T02:30:20.328Z,26.87
2022-11-17T02:32:59.786Z,24.53
2022-11-17T02:35:29.649Z,26.83
2022-11-17T02:38:05.410Z,25.37
2022-11-17T02:40:35.859Z,34.57
2022-11-17T02:43:26.615Z,27.67
2022-11-17T02:45:58.445Z,25.73
2022-11-17T02:48:32.963Z,26.30
2022-11-17T02:51:01.526Z,27.27
2022-11-17T02:53:30.287Z,29.73
2022-11-17T02:56:01.245Z,25.67
2022-11-17T02:58:30.825Z,24.23
2022-11-17T03:01:12.381Z,27.20
2022-11-17T03:03:48.844Z,25.63
2022-11-17T03:06:23.386Z,27.93
2022-11-17T03:09:00.825Z,29.60
2022-11-17T03:11:34.314Z,30.27
2022-11-17T03:14:08.638Z,29.70
2022-11-17T03:16:38.889Z,23.40
2022-11-17T03:19:11.157Z,24.90
2022-11-17T03:21:42.657Z,24.50
2022-11-17T03:24:15.705Z,26.10
2022-11-17T03:26:45.957Z,22.60
2022-11-17T03:29:17.376Z,28.07
2022-11-17T03:31:47.193Z,23.27
2022-11-17T03:34:17.998Z,25.00
2022-11-17T03:36:50.414Z,22.30
2022-11-17T03:39:23.825Z,19.47
2022-11-17T03:41:55.507Z,23.03
2022-11-17T03:44:26.534Z,19.33
2022-11-17T03:46:56.142Z,21.20
2022-11-17T03:49:29.216Z,22.90
2022-11-17T03:51:57.416Z,21.70
2022-11-17T03:54:25.774Z,19.30
2022-11-17T03:56:58.163Z,21.10
2022-11-17T03:59:31.733Z,16.87
2022-11-17T04:02:00.375Z,19.10
2022-11-17T04:04:49.319Z,24.13
2022-11-17T04:07:18.132Z,18.30
2022-11-17T04:09:46.545Z,17.57
2022-11-17T04:12:32.055Z,17.87
2022-11-17T04:15:19.282Z,18.30
2022-11-17T04:17:47.723Z,20.50
2022-11-17T04:20:16.504Z,18.90
2022-11-17T04:22:45.138Z,17.13
2022-11-17T04:25:33.623Z,17.47
2022-11-17T04:28:16.138Z,17.23
2022-11-17T04:30:45.814Z,20.00
2022-11-17T04:33:13.992Z,15.87
2022-11-17T04:35:42.217Z,15.83
2022-11-17T04:38:10.404Z,18.87
2022-11-17T04:40:58.625Z,16.87
2022-11-17T04:43:25.714Z,17.83
2022-11-17T04:46:00.275Z,18.57
2022-11-17T04:48:28.694Z,16.67
2022-11-17T04:50:57.394Z,16.23
2022-11-17T04:53:26.054Z,16.97
2022-11-17T04:55:54.217Z,24.67
2022-11-17T04:58:22.374Z,18.37
2022-11-17T05:00:50.494Z,20.57
2022-11-17T05:03:20.146Z,19.57
2022-11-17T05:05:48.797Z,21.40
2022-11-17T05:08:17.083Z,18.57
2022-11-17T05:11:03.267Z,19.30
2022-11-17T05:13:31.604Z,18.50
2022-11-17T05:16:17.550Z,24.37
2022-11-17T05:18:47.336Z,16.90
2022-11-17T05:21:15.645Z,17.20
2022-11-17T05:23:55.352Z,15.67
2022-11-17T05:26:26.045Z,17.00
2022-11-17T05:28:56.085Z,15.00
2022-11-17T05:31:24.701Z,17.47
2022-11-17T05:33:54.593Z,16.70
2022-11-17T05:36:23.326Z,12.93
2022-11-17T05:38:51.785Z,15.47
2022-11-17T05:41:20.455Z,12.90
2022-11-17T05:43:50.513Z,13.77
2022-11-17T05:46:19.265Z,15.10
2022-11-17T05:48:48.979Z,13.40
2022-11-17T05:51:19.119Z,15.43
2022-11-17T05:53:47.358Z,13.17
2022-11-17T05:56:25.876Z,13.50
2022-11-17T05:58:56.075Z,14.53
2022-11-17T06:01:24.505Z,14.87
2022-11-17T06:03:54.822Z,12.80
2022-11-17T06:06:25.218Z,11.77
2022-11-17T06:08:53.585Z,13.03
2022-11-17T06:11:21.947Z,12.37
2022-11-17T06:13:50.224Z,13.03
2022-11-17T06:16:20.285Z,15.13
2022-11-17T06:18:52.149Z,14.67
2022-11-17T06:21:20.876Z,14.77
2022-11-17T06:23:51.395Z,40.40
2022-11-17T06:26:19.776Z,22.20
2022-11-17T06:28:49.467Z,16.30
2022-11-17T06:31:18.544Z,14.20
2022-11-17T06:33:47.257Z,14.47
2022-11-17T06:36:15.639Z,13.23
2022-11-17T06:38:43.866Z,13.10
2022-11-17T06:41:13.447Z,16.27
2022-11-17T06:43:41.898Z,14.40
2022-11-17T06:46:10.097Z,13.93
2022-11-17T06:48:38.516Z,16.00
2022-11-17T06:51:07.836Z,14.07
2022-11-17T06:53:36.825Z,15.03
2022-11-17T06:56:07.538Z,15.60
2022-11-17T06:58:39.947Z,17.10
2022-11-17T07:01:09.489Z,14.67
2022-11-17T07:03:43.136Z,14.67
2022-11-17T07:06:12.488Z,24.27
2022-11-17T07:08:40.671Z,15.83
2022-11-17T07:11:10.174Z,17.37
2022-11-17T07:13:40.011Z,18.07
2022-11-17T07:16:10.549Z,15.70
2022-11-17T07:18:51.675Z,19.27
2022-11-17T07:21:19.977Z,19.67
2022-11-17T07:23:48.273Z,17.00
2022-11-17T07:26:16.427Z,20.20
2022-11-17T07:28:45.998Z,19.07
2022-11-17T07:31:14.297Z,17.40
2022-11-17T07:33:42.471Z,17.40
2022-11-17T07:36:12.248Z,18.67
2022-11-17T07:38:41.625Z,18.87
2022-11-17T07:41:12.717Z,20.90
2022-11-17T07:43:41.010Z,36.10
2022-11-17T07:46:13.118Z,18.00
2022-11-17T07:48:41.336Z,20.17
2022-11-17T07:51:09.632Z,14.47
2022-11-17T07:53:38.040Z,14.73
2022-11-17T07:56:07.379Z,14.97
2022-11-17T07:58:36.069Z,19.73
2022-11-17T08:01:06.598Z,16.70
2022-11-17T08:03:36.311Z,17.73
2022-11-17T08:06:05.001Z,14.53
2022-11-17T08:08:34.320Z,18.10
2022-11-17T08:11:03.970Z,14.93
2022-11-17T08:13:32.386Z,12.60
2022-11-17T08:16:00.839Z,12.80
2022-11-17T08:18:29.694Z,11.67
2022-11-17T08:21:04.666Z,10.43
2022-11-17T08:23:33.138Z,12.27
2022-11-17T08:26:01.489Z,26.73
2022-11-17T08:28:29.677Z,14.30
2022-11-17T08:30:58.009Z,11.20
2022-11-17T08:33:26.187Z,12.90
2022-11-17T08:35:54.337Z,11.60
2022-11-17T08:38:29.065Z,10.77
2022-11-17T08:40:57.564Z,10.73
2022-11-17T08:43:25.860Z,9.63
2022-11-17T08:45:54.066Z,14.73
2022-11-17T08:48:22.173Z,16.27
2022-11-17T08:50:50.599Z,13.07
2022-11-17T08:53:20.345Z,10.53
2022-11-17T08:55:50.035Z,11.27
2022-11-17T08:58:18.289Z,10.17
2022-11-17T09:00:47.597Z,10.03
2022-11-17T09:03:16.531Z,10.97
2022-11-17T09:05:47.266Z,10.93
2022-11-17T09:08:43.830Z,9.87
2022-11-17T09:11:07.605Z,10.60
2022-11-17T09:13:36.280Z,9.60
2022-11-17T09:16:04.573Z,11.10
2022-11-17T09:18:33.201Z,10.47
2022-11-17T09:21:02.310Z,12.50
2022-11-17T09:23:31.869Z,9.93
2022-11-17T09:26:00.866Z,9.83
2022-11-17T09:28:30.510Z,11.70
2022-11-17T09:31:00.395Z,10.63
2022-11-17T09:33:30.050Z,11.37
2022-11-17T09:35:58.796Z,12.50
2022-11-17T09:38:26.947Z,10.03
2022-11-17T09:41:01.395Z,14.00
2022-11-17T09:43:33.971Z,11.03
2022-11-17T09:46:07.806Z,13.27
2022-11-17T09:48:42.450Z,12.30
2022-11-17T09:51:13.947Z,10.43
2022-11-17T09:53:45.837Z,11.10
2022-11-17T09:56:15.237Z,11.03
2022-11-17T09:58:49.046Z,10.90
2022-11-17T10:01:19.252Z,10.70
2022-11-17T10:03:48.974Z,11.13
2022-11-17T10:06:21.016Z,11.70
2022-11-17T10:08:58.580Z,11.20
2022-11-17T10:11:36.467Z,10.87
2022-11-17T10:14:23.816Z,10.63
2022-11-17T10:16:54.231Z,11.33
2022-11-17T10:19:24.299Z,10.33
2022-11-17T10:21:54.618Z,9.37
2022-11-17T10:24:36.743Z,10.20
2022-11-17T10:27:06.906Z,12.87
2022-11-17T10:29:36.485Z,10.70
2022-11-17T10:32:07.254Z,10.50
2022-11-17T10:34:40.955Z,10.83
2022-11-17T10:37:26.315Z,10.03
2022-11-17T10:40:11.094Z,14.53
2022-11-17T10:42:39.769Z,10.03
2022-11-17T10:45:18.029Z,10.50
2022-11-17T10:47:46.369Z,10.90
2022-11-17T10:50:20.027Z,11.20
2022-11-17T10:52:48.418Z,11.47
2022-11-17T10:55:27.646Z,11.17
2022-11-17T10:57:58.456Z,11.40
2022-11-17T11:00:31.379Z,11.23
2022-11-17T11:03:19.847Z,11.70
2022-11-17T11:06:06.429Z,11.77
2022-11-17T11:08:47.735Z,12.67
2022-11-17T11:11:23.040Z,13.67
2022-11-17T11:13:56.384Z,13.10
2022-11-17T11:16:27.179Z,11.93
2022-11-17T11:18:55.296Z,14.40
2022-11-17T11:21:39.667Z,12.70
2022-11-17T11:24:14.997Z,12.33
2022-11-17T11:26:49.146Z,15.27
2022-11-17T11:29:26.726Z,13.43
2022-11-17T11:32:07.139Z,12.23
2022-11-17T11:35:05.068Z,18.17
2022-11-17T11:37:39.124Z,14.37
2022-11-17T11:40:16.719Z,14.07
2022-11-17T11:42:54.096Z,14.30
2022-11-17T11:45:32.759Z,13.50
2022-11-17T11:48:17.280Z,13.73
2022-11-17T11:50:54.186Z,12.90
2022-11-17T11:53:36.749Z,12.90
2022-11-17T11:56:11.035Z,12.63
2022-11-17T11:58:43.741Z,12.33
2022-11-17T12:01:13.695Z,11.23
2022-11-17T12:03:49.947Z,11.57
2022-11-17T12:06:43.353Z,11.80
2022-11-17T12:09:40.853Z,11.77
2022-11-17T12:12:10.553Z,12.20
2022-11-17T12:14:39.466Z,11.03
2022-11-17T12:17:23.504Z,9.83
2022-11-17T12:19:59.007Z,10.87
2022-11-17T12:22:54.098Z,9.50
2022-11-17T12:25:27.019Z,8.87
2022-11-17T12:27:55.276Z,8.90
2022-11-17T12:30:55.938Z,9.37
2022-11-17T12:33:24.809Z,8.87
2022-11-17T12:36:31.122Z,8.63
2022-11-17T12:39:01.436Z,8.60
2022-11-17T12:42:09.868Z,9.27
2022-11-17T12:44:48.886Z,10.27
2022-11-17T12:47:19.858Z,7.93
2022-11-17T12:49:58.056Z,8.77
2022-11-17T12:52:34.405Z,8.70
2022-11-17T12:55:07.756Z,9.37
2022-11-17T12:57:36.565Z,8.33
2022-11-17T13:00:10.066Z,9.13
2022-11-17T13:03:06.678Z,8.23
2022-11-17T13:05:35.876Z,7.87
2022-11-17T13:08:21.765Z,7.90
2022-11-17T13:10:51.445Z,7.93
2022-11-17T13:13:20.836Z,7.47
2022-11-17T13:15:51.435Z,8.47
2022-11-17T13:18:27.224Z,7.67
2022-11-17T13:20:55.980Z,7.47
2022-11-17T13:23:26.109Z,6.67
2022-11-17T13:26:11.290Z,7.33
2022-11-17T13:28:39.567Z,6.70
2022-11-17T13:31:08.483Z,6.57
2022-11-17T13:33:40.319Z,7.30
2022-11-17T13:36:17.423Z,6.23
2022-11-17T13:38:50.120Z,5.80
2022-11-17T13:41:21.175Z,6.47
2022-11-17T13:43:50.596Z,6.17
2022-11-17T13:46:20.039Z,6.13
2022-11-17T13:48:50.985Z,5.80
2022-11-17T13:51:23.928Z,6.00
2022-11-17T13:53:55.664Z,6.10
2022-11-17T13:56:27.815Z,6.73
2022-11-17T13:58:56.435Z,6.87
2022-11-17T14:01:25.583Z,6.57
2022-11-17T14:03:54.007Z,6.50
2022-11-17T14:06:22.485Z,5.93
2022-11-17T14:09:05.646Z,8.73
2022-11-17T14:11:35.235Z,9.10
2022-11-17T14:14:03.439Z,7.17
2022-11-17T14:16:36.565Z,7.47
2022-11-17T14:19:07.039Z,7.77
2022-11-17T14:21:35.195Z,7.32
2022-11-17T14:24:06.696Z,6.90
2022-11-17T14:26:36.375Z,6.37
2022-11-17T14:29:05.031Z,6.07
2022-11-17T14:31:33.467Z,6.50
2022-11-17T14:34:01.806Z,5.83
2022-11-17T14:36:30.358Z,6.93
2022-11-17T14:38:58.707Z,6.93
2022-11-17T14:41:27.065Z,7.20
2022-11-17T14:43:56.614Z,6.97
2022-11-17T14:46:26.426Z,7.20
2022-11-17T14:48:55.522Z,8.00
2022-11-17T14:51:24.373Z,7.90
2022-11-17T14:53:54.249Z,10.73
2022-11-17T14:56:23.798Z,9.37
2022-11-17T14:59:03.248Z,8.03
2022-11-17T15:01:32.778Z,8.37
2022-11-17T15:04:20.784Z,9.57
2022-11-17T15:06:51.671Z,8.57
2022-11-17T15:09:20.829Z,7.57
2022-11-17T15:11:49.015Z,7.00
2022-11-17T15:14:19.182Z,7.47
2022-11-17T15:16:48.825Z,7.23
2022-11-17T15:19:17.067Z,8.47
2022-11-17T15:21:45.889Z,7.27
2022-11-17T15:24:14.259Z,8.90
2022-11-17T15:26:42.818Z,7.40
2022-11-17T15:29:15.264Z,7.03
2022-11-17T15:31:45.394Z,7.33
2022-11-17T15:34:19.700Z,7.23
2022-11-17T15:36:48.638Z,8.30
2022-11-17T15:39:17.463Z,8.60
2022-11-17T15:41:46.336Z,8.13
2022-11-17T15:44:15.008Z,7.57
2022-11-17T15:46:47.589Z,7.90
2022-11-17T15:49:16.827Z,6.70
2022-11-17T15:51:45.319Z,6.03
2022-11-17T15:54:19.969Z,6.30
2022-11-17T15:56:49.107Z,7.00
2022-11-17T15:59:17.537Z,7.23
2022-11-17T16:01:48.044Z,7.50
2022-11-17T16:04:16.753Z,8.10
2022-11-17T16:06:46.816Z,9.27
2022-11-17T16:09:16.136Z,11.13
2022-11-17T16:11:44.849Z,11.67
2022-11-17T16:14:15.160Z,12.97
2022-11-17T16:16:48.418Z,11.47
2022-11-17T16:19:19.123Z,8.00
2022-11-17T16:21:47.997Z,7.23
2022-11-17T16:24:16.835Z,7.90
2022-11-17T16:26:46.091Z,8.90
2022-11-17T16:29:14.578Z,7.83
2022-11-17T16:31:43.835Z,8.00
2022-11-17T16:34:13.667Z,8.10
2022-11-17T16:36:44.627Z,8.17
2022-11-17T16:39:14.491Z,9.40
2022-11-17T16:41:45.497Z,8.37
2022-11-17T16:44:15.184Z,8.00
2022-11-17T16:46:44.377Z,8.53
2022-11-17T16:49:14.231Z,7.53
2022-11-17T16:51:48.160Z,9.43
2022-11-17T16:54:17.066Z,9.83
2022-11-17T16:56:45.239Z,9.83
2022-11-17T16:59:13.707Z,11.80
2022-11-17T17:01:42.059Z,11.73
2022-11-17T17:04:12.348Z,11.67
2022-11-17T17:06:41.456Z,11.33
2022-11-17T17:09:13.046Z,17.77
2022-11-17T17:11:41.752Z,11.67
2022-11-17T17:14:13.697Z,13.37
2022-11-17T17:16:42.495Z,11.20
2022-11-17T17:19:12.277Z,10.77
2022-11-17T17:21:41.026Z,11.13
2022-11-17T17:24:12.345Z,10.47
2022-11-17T17:26:41.536Z,10.23
2022-11-17T17:29:10.106Z,10.67
2022-11-17T17:31:39.925Z,10.90
2022-11-17T17:34:08.777Z,11.67
2022-11-17T17:36:38.615Z,11.23
2022-11-17T17:39:08.225Z,10.40
2022-11-17T17:41:41.326Z,10.43
2022-11-17T17:44:10.353Z,11.63
2022-11-17T17:46:39.747Z,11.00
2022-11-17T17:49:08.294Z,11.60
2022-11-17T17:51:40.249Z,12.87
2022-11-17T17:54:08.497Z,13.93
2022-11-17T17:56:38.115Z,14.80
2022-11-17T17:59:06.285Z,15.23
2022-11-17T18:01:34.553Z,14.70
2022-11-17T18:04:05.618Z,14.87
2022-11-17T18:06:37.483Z,14.70
2022-11-17T18:09:06.194Z,16.43
2022-11-17T18:11:35.867Z,16.50
2022-11-17T18:14:06.456Z,16.67
2022-11-17T18:16:35.244Z,15.07
2022-11-17T18:19:05.157Z,15.30
2022-11-17T18:21:34.105Z,14.87
2022-11-17T18:24:03.586Z,14.77
2022-11-17T18:26:33.142Z,13.37
2022-11-17T18:29:03.297Z,15.03
2022-11-17T18:31:34.364Z,16.87
2022-11-17T18:34:04.878Z,15.93
2022-11-17T18:36:34.895Z,16.10
2022-11-17T18:39:03.768Z,20.13
2022-11-17T18:41:34.114Z,18.93
2022-11-17T18:44:02.765Z,17.67
2022-11-17T18:46:33.630Z,18.27
2022-11-17T18:49:01.977Z,16.30
2022-11-17T18:51:31.740Z,16.97
2022-11-17T18:54:01.263Z,23.07
2022-11-17T18:56:32.735Z,23.93
2022-11-17T18:59:00.976Z,25.90
2022-11-17T19:01:30.494Z,23.37
2022-11-17T19:04:01.615Z,21.20
2022-11-17T19:06:30.128Z,18.43
2022-11-17T19:09:00.056Z,18.90
2022-11-17T19:11:30.834Z,21.17
2022-11-17T19:14:00.186Z,22.57
2022-11-17T19:16:28.675Z,19.13
2022-11-17T19:18:57.625Z,21.33
2022-11-17T19:21:28.624Z,17.70
2022-11-17T19:23:59.165Z,19.27
2022-11-17T19:26:29.170Z,18.87
2022-11-17T19:28:58.160Z,17.63
2022-11-17T19:31:26.756Z,17.83
2022-11-17T19:33:56.315Z,18.40
2022-11-17T19:36:27.831Z,17.33
2022-11-17T19:38:57.455Z,22.57
2022-11-17T19:41:26.982Z,22.67
2022-11-17T19:43:55.958Z,22.60
2022-11-17T19:46:26.501Z,20.87
2022-11-17T19:48:54.895Z,21.33
2022-11-17T19:51:24.771Z,21.23
2022-11-17T19:53:56.443Z,21.40
2022-11-17T19:56:25.778Z,20.77
2022-11-17T19:58:54.535Z,21.30
2022-11-17T20:01:25.465Z,20.07
2022-11-17T20:03:54.008Z,22.90
2022-11-17T20:06:23.586Z,22.90
2022-11-17T20:08:53.206Z,22.30
2022-11-17T20:11:23.180Z,22.60
2022-11-17T20:13:51.626Z,23.87
2022-11-17T20:16:22.598Z,19.87
2022-11-17T20:18:53.834Z,19.17
2022-11-17T20:21:22.219Z,18.70
2022-11-17T20:23:51.844Z,17.83
2022-11-17T20:26:23.275Z,18.43
2022-11-17T20:28:51.665Z,16.33
2022-11-17T20:31:21.890Z,15.90
2022-11-17T20:33:50.189Z,16.57
2022-11-17T20:36:20.655Z,17.60
2022-11-17T20:38:52.528Z,16.93
2022-11-17T20:41:23.563Z,16.40
2022-11-17T20:43:53.195Z,16.30
2022-11-17T20:46:23.802Z,17.17
2022-11-17T20:48:52.055Z,15.97
2022-11-17T20:51:21.765Z,15.00
2022-11-17T20:53:50.527Z,15.20
2022-11-17T20:56:20.011Z,15.33
2022-11-17T20:58:49.913Z,17.90
2022-11-17T21:01:19.935Z,16.87
2022-11-17T21:03:49.895Z,15.87
2022-11-17T21:06:20.708Z,16.17
2022-11-17T21:08:49.145Z,17.13
2022-11-17T21:11:32.759Z,17.57
2022-11-17T21:14:04.135Z,18.47
2022-11-17T21:16:34.132Z,18.07
2022-11-17T21:19:02.269Z,20.87
2022-11-17T21:21:31.942Z,19.03
2022-11-17T21:24:01.693Z,18.80
2022-11-17T21:26:30.006Z,16.30
2022-11-17T21:29:05.982Z,16.20
2022-11-17T21:31:36.779Z,19.50
2022-11-17T21:34:07.261Z,21.77
2022-11-17T21:36:37.378Z,16.80
2022-11-17T21:39:06.031Z,18.80
2022-11-17T21:41:36.331Z,17.67
2022-11-17T21:44:04.885Z,19.20
2022-11-17T21:46:36.467Z,20.33
2022-11-17T21:49:05.093Z,19.93
2022-11-17T21:51:35.066Z,19.13
2022-11-17T21:54:05.023Z,20.43
2022-11-17T21:56:33.487Z,18.87
2022-11-17T21:59:02.708Z,20.90
2022-11-17T22:01:31.947Z,19.17
2022-11-17T22:04:01.705Z,19.57
2022-11-17T22:06:30.786Z,19.80
2022-11-17T22:09:00.192Z,19.40
2022-11-17T22:11:39.127Z,20.13
2022-11-17T22:14:10.053Z,18.30
2022-11-17T22:16:39.541Z,21.80
2022-11-17T22:19:09.700Z,19.50
2022-11-17T22:21:38.434Z,20.27
2022-11-17T22:24:08.227Z,19.47
2022-11-17T22:26:38.483Z,20.20
2022-11-17T22:29:07.746Z,19.73
2022-11-17T22:31:35.996Z,19.43
2022-11-17T22:34:04.397Z,18.50
2022-11-17T22:36:34.027Z,36.43
2022-11-17T22:39:02.248Z,23.83
2022-11-17T22:41:30.378Z,19.83
2022-11-17T22:43:59.481Z,19.17
2022-11-17T22:46:29.052Z,21.63
2022-11-17T22:48:57.377Z,22.60
2022-11-17T22:51:43.669Z,21.93
2022-11-17T22:54:13.264Z,19.27
2022-11-17T22:56:41.418Z,19.30
2022-11-17T22:59:09.815Z,19.53
2022-11-17T23:01:38.005Z,20.57
2022-11-17T23:04:07.164Z,21.17
2022-11-17T23:06:35.562Z,20.40
2022-11-17T23:09:03.902Z,23.53
2022-11-17T23:11:37.930Z,22.13
2022-11-17T23:14:06.816Z,21.93
2022-11-17T23:16:34.954Z,21.67
2022-11-17T23:19:03.205Z,20.60
2022-11-17T23:21:31.643Z,22.40
2022-11-17T23:23:59.776Z,22.13
2022-11-17T23:26:27.955Z,21.87
2022-11-17T23:28:58.265Z,33.60
2022-11-17T23:31:27.990Z,31.80
2022-11-17T23:33:56.357Z,23.70
2022-11-17T23:36:24.857Z,21.80
2022-11-17T23:38:53.855Z,21.30
2022-11-17T23:41:22.609Z,22.87
2022-11-17T23:43:51.930Z,21.63
2022-11-17T23:46:23.055Z,21.23
2022-11-17T23:48:51.586Z,20.27
2022-11-17T23:51:21.950Z,20.07
2022-11-17T23:53:50.665Z,17.90
2022-11-17T23:56:20.736Z,20.97
2022-11-17T23:58:49.025Z,20.03
